Afton, Iowa
Current Conditions -  °F | °C
As of 5:55 AM on Thursday 27 Nov 2014 (Local Time) from KCSQ Reporting Station
Clear Clear  
Wind Chill:   Ceiling: Unl
Heat Index: 10°   Visibility: 10mi
Dew Point:   Wind: 7mph
Humidity: 79%   Direction: 350°N
Pressure: 30.47"   Gusts: NA
Location:  41.03°N, 94.2°W
Report Text: KCSQ 271155Z AUTO 35006KT 10SM CLR M12/M15 A3047 RMK AO2
Loading
Personal Weather Stations






























Interactive Weather Map New forecast layout! Learn more

10-Day Weather Forecast

Advertisements
Track Severe Weather on mobile